18 | 06 | 2024

Klimadaten

Klimadaten von der Klimastation Reinstorf   ( 2m Messungen )  

Datum Zeit Temp.Außen Temp.min Temp.max BodenTemp 1 BodenTemp 2 BodenTemp 3 BodenTemp 4 Feuchte Auße BlattFeu 1 BlattFeu 2 Bod.Feucht 1 Luftdruck Regen Wind Richtung Richtung Sonnenschein Zeit Temp. A ET UV Solar Taupunkt Windchill Windböen
16.06.24 01:00:00 10,0 °C 9,7 °C 10,1 °C 8,9 °C 12,8 °C 13,9 °C 16,1 °C 89,00% 12 lf 0 lf 110 cb 1010,4 hPa 0,0 mm 4,8 km/h (1 Bft) SO 135 ° 0 min 0 min 0,000 mm 0,0 UV-I 0 W/m² 8,3 °C 9,5 °C 8,0 km/h (2 Bft)
16.06.24 01:30:00 9,4 °C 9,3 °C 10,0 °C 8,3 °C 12,2 °C 13,3 °C 16,1 °C 90,00% 13 lf 0 lf 108 cb 1010,4 hPa 0,0 mm 3,2 km/h (1 Bft) S-SO 157 ° 0 min 0 min 0,000 mm 0,0 UV-I 0 W/m² 7,8 °C 9,3 °C 8,0 km/h (2 Bft)
16.06.24 02:00:00 9,3 °C 9,3 °C 9,4 °C 8,3 °C 12,2 °C 13,3 °C 15,6 °C 90,00% 13 lf 0 lf 109 cb 1010,5 hPa 0,0 mm 3,2 km/h (1 Bft) S-SO 157 ° 0 min 0 min 0,000 mm 0,0 UV-I 0 W/m² 7,7 °C 9,3 °C 4,8 km/h (1 Bft)
16.06.24 02:30:00 9,1 °C 9,1 °C 9,4 °C 8,3 °C 11,7 °C 13,3 °C 15,6 °C 90,00% 14 lf 0 lf 110 cb 1010,3 hPa 0,0 mm 1,6 km/h (1 Bft) S-SO 157 ° 0 min 0 min 0,000 mm 0,0 UV-I 0 W/m² 7,5 °C 9,1 °C 3,2 km/h (1 Bft)
16.06.24 03:00:00 8,8 °C 8,7 °C 9,2 °C 7,8 °C 11,7 °C 12,8 °C 15,6 °C 90,00% 15 lf 0 lf 111 cb 1010,3 hPa 0,0 mm 3,2 km/h (1 Bft) S-SO 157 ° 0 min 0 min 0,000 mm 0,0 UV-I 0 W/m² 7,3 °C 8,7 °C 6,4 km/h (2 Bft)
16.06.24 03:30:00 8,1 °C 8,1 °C 8,8 °C 7,2 °C 11,1 °C 12,8 °C 15,6 °C 90,00% 15 lf 0 lf 111 cb 1010,3 hPa 0,0 mm 1,6 km/h (1 Bft) S-SO 157 ° 0 min 0 min 0,000 mm 0,0 UV-I 0 W/m² 6,6 °C 8,1 °C 4,8 km/h (1 Bft)
16.06.24 04:00:00 7,7 °C 7,7 °C 8,1 °C 7,2 °C 11,1 °C 12,2 °C 15,6 °C 91,00% 15 lf 0 lf 113 cb 1010,1 hPa 0,0 mm 1,6 km/h (1 Bft) SO 135 ° 0 min 0 min 0,000 mm 0,0 UV-I 0 W/m² 6,3 °C 7,7 °C 3,2 km/h (1 Bft)
16.06.24 04:30:00 7,6 °C 7,6 °C 7,8 °C 7,2 °C 11,1 °C 12,2 °C 15,0 °C 90,00% 15 lf 0 lf 112 cb 1010,4 hPa 0,0 mm 0,0 km/h (0 Bft) O-SO 112 ° 0 min 0 min 0,000 mm 0,0 UV-I 0 W/m² 6,1 °C 7,6 °C 3,2 km/h (1 Bft)
16.06.24 05:00:00 7,3 °C 7,3 °C 7,6 °C 6,7 °C 11,1 °C 12,2 °C 15,0 °C 91,00% 15 lf 100 lf 109 cb 1010,3 hPa 0,0 mm 1,6 km/h (1 Bft) O-SO 112 ° 15 min 0 min 0,000 mm 0,0 UV-I 2 W/m² 5,9 °C 7,3 °C 4,8 km/h (1 Bft)
16.06.24 05:30:00 7,9 °C 7,3 °C 7,9 °C 8,3 °C 11,1 °C 11,7 °C 15,0 °C 92,00% 15 lf 100 lf 115 cb 1010,4 hPa 0,0 mm 3,2 km/h (1 Bft) O-SO 112 ° 15 min 0 min 0,000 mm 0,0 UV-I 28 W/m² 6,7 °C 7,3 °C 8,0 km/h (2 Bft)
16.06.24 06:00:00 10,0 °C 7,9 °C 10,0 °C 10,0 °C 11,7 °C 11,7 °C 15,0 °C 92,00% 15 lf 100 lf 118 cb 1010,4 hPa 0,0 mm 3,2 km/h (1 Bft) SO 135 ° 15 min 0 min 0,025 mm 0,0 UV-I 56 W/m² 8,8 °C 7,9 °C 11,3 km/h (2 Bft)
16.06.24 06:30:00 11,4 °C 10,1 °C 11,4 °C 11,7 °C 11,7 °C 12,2 °C 15,0 °C 92,00% 15 lf 100 lf 123 cb 1010,4 hPa 0,0 mm 4,8 km/h (1 Bft) SO 135 ° 15 min 0 min 0,000 mm 0,0 UV-I 87 W/m² 10,1 °C 10,1 °C 11,3 km/h (2 Bft)
16.06.24 07:00:00 12,6 °C 11,4 °C 12,6 °C 13,3 °C 12,8 °C 12,2 °C 14,4 °C 91,00% 6 lf 100 lf 128 cb 1010,5 hPa 0,0 mm 4,8 km/h (1 Bft) S-SO 157 ° 15 min 0 min 0,051 mm 0,0 UV-I 129 W/m² 11,2 °C 11,4 °C 12,9 km/h (3 Bft)
16.06.24 07:30:00 14,0 °C 12,6 °C 14,0 °C 15,0 °C 13,3 °C 12,8 °C 14,4 °C 89,00% 0 lf 100 lf 132 cb 1010,5 hPa 0,0 mm 4,8 km/h (1 Bft) SO 135 ° 15 min 0 min 0,000 mm 0,0 UV-I 198 W/m² 12,2 °C 12,6 °C 11,3 km/h (2 Bft)
16.06.24 08:00:00 14,9 °C 14,0 °C 14,9 °C 15,6 °C 13,9 °C 13,3 °C 14,4 °C 86,00% 0 lf 100 lf 133 cb 1010,4 hPa 0,0 mm 4,8 km/h (1 Bft) S-SO 157 ° 15 min 0 min 0,102 mm 0,3 UV-I 188 W/m² 12,6 °C 14,0 °C 11,3 km/h (2 Bft)
16.06.24 08:30:00 16,6 °C 14,9 °C 16,6 °C 16,7 °C 14,4 °C 13,3 °C 14,4 °C 78,00% 0 lf 100 lf 131 cb 1010,3 hPa 0,0 mm 8,0 km/h (2 Bft) S-SO 157 ° 15 min 0 min 0,000 mm 0,8 UV-I 399 W/m² 12,7 °C 14,9 °C 16,1 km/h (3 Bft)
16.06.24 09:00:00 18,1 °C 16,6 °C 18,1 °C 16,7 °C 13,9 °C 13,9 °C 14,4 °C 69,00% 0 lf 100 lf 130 cb 1010,3 hPa 0,0 mm 9,7 km/h (2 Bft) S-SO 157 ° 15 min 0 min 0,254 mm 1,1 UV-I 487 W/m² 12,3 °C 16,6 °C 16,1 km/h (3 Bft)
16.06.24 09:30:00 19,3 °C 18,1 °C 19,3 °C 17,2 °C 13,9 °C 13,9 °C 14,4 °C 66,00% 0 lf 95 lf 133 cb 1010,4 hPa 0,0 mm 8,0 km/h (2 Bft) S-SO 157 ° 15 min 0 min 0,000 mm 1,5 UV-I 551 W/m² 12,8 °C 18,1 °C 14,5 km/h (3 Bft)
16.06.24 10:00:00 20,2 °C 19,3 °C 20,3 °C 18,9 °C 14,4 °C 13,9 °C 14,4 °C 60,00% 0 lf 84 lf 135 cb 1010,3 hPa 0,0 mm 8,0 km/h (2 Bft) S-SO 157 ° 0 min 0 min 0,381 mm 1,8 UV-I 634 W/m² 12,2 °C 19,3 °C 16,1 km/h (3 Bft)
16.06.24 10:30:00 19,4 °C 19,4 °C 20,4 °C 20,6 °C 16,7 °C 14,4 °C 14,4 °C 62,00% 0 lf 100 lf 137 cb 1010,4 hPa 0,0 mm 9,7 km/h (2 Bft) S 180 ° 15 min 0 min 0,000 mm 1,8 UV-I 479 W/m² 11,9 °C 19,4 °C 19,3 km/h (3 Bft)
16.06.24 11:00:00 20,8 °C 19,4 °C 21,1 °C 24,4 °C 19,4 °C 15,6 °C 14,4 °C 57,00% 0 lf 82 lf 146 cb 1010,3 hPa 0,0 mm 11,3 km/h (2 Bft) S-SO 157 ° 0 min 0 min 0,406 mm 2,4 UV-I 716 W/m² 12,0 °C 19,4 °C 24,1 km/h (4 Bft)
16.06.24 11:30:00 21,3 °C 20,1 °C 21,5 °C 25,6 °C 20,6 °C 16,7 °C 14,4 °C 62,00% 0 lf 79 lf 152 cb 1010,4 hPa 0,0 mm 11,3 km/h (2 Bft) S 180 ° 0 min 0 min 0,000 mm 2,7 UV-I 721 W/m² 13,7 °C 20,1 °C 25,7 km/h (4 Bft)
16.06.24 12:00:00 21,4 °C 21,3 °C 22,1 °C 26,1 °C 22,8 °C 17,8 °C 15,0 °C 58,00% 0 lf 92 lf 149 cb 1010,1 hPa 0,0 mm 9,7 km/h (2 Bft) S 180 ° 15 min 0 min 0,483 mm 2,9 UV-I 834 W/m² 12,8 °C 21,3 °C 20,9 km/h (4 Bft)
16.06.24 12:30:00 22,1 °C 21,4 °C 22,3 °C 26,1 °C 23,9 °C 18,3 °C 15,0 °C 56,00% 0 lf 95 lf 143 cb 1010,0 hPa 0,0 mm 12,9 km/h (3 Bft) S-SO 157 ° 15 min 0 min 0,000 mm 3,2 UV-I 860 W/m² 12,9 °C 21,4 °C 27,4 km/h (5 Bft)
16.06.24 13:00:00 22,3 °C 21,5 °C 22,7 °C 26,1 °C 23,9 °C 19,4 °C 15,0 °C 56,00% 0 lf 100 lf 140 cb 1009,8 hPa 0,0 mm 11,3 km/h (2 Bft) S-SO 157 ° 15 min 0 min 0,508 mm 2,8 UV-I 751 W/m² 13,1 °C 21,5 °C 27,4 km/h (5 Bft)
16.06.24 13:30:00 22,2 °C 20,7 °C 22,7 °C 25,6 °C 23,3 °C 20,0 °C 15,6 °C 58,00% 0 lf 100 lf 136 cb 1009,5 hPa 0,0 mm 11,3 km/h (2 Bft) S-SO 157 ° 15 min 0 min 0,000 mm 2,2 UV-I 464 W/m² 13,5 °C 20,7 °C 24,1 km/h (4 Bft)
16.06.24 14:00:00 21,8 °C 21,8 °C 23,3 °C 23,9 °C 23,9 °C 20,6 °C 15,6 °C 59,00% 0 lf 100 lf 131 cb 1009,5 hPa 0,0 mm 14,5 km/h (3 Bft) SO 135 ° 15 min 0 min 0,432 mm 3,0 UV-I 689 W/m² 13,4 °C 21,8 °C 27,4 km/h (5 Bft)
16.06.24 14:30:00 21,3 °C 21,3 °C 21,8 °C 22,8 °C 22,2 °C 20,6 °C 15,6 °C 57,00% 0 lf 100 lf 130 cb 1009,4 hPa 0,0 mm 14,5 km/h (3 Bft) S-SO 157 ° 15 min 0 min 0,000 mm 2,0 UV-I 351 W/m² 12,4 °C 21,3 °C 27,4 km/h (5 Bft)
16.06.24 15:00:00 22,9 °C 21,1 °C 23,0 °C 26,7 °C 23,3 °C 20,6 °C 16,1 °C 62,00% 0 lf 100 lf 136 cb 1009,2 hPa 0,0 mm 9,7 km/h (2 Bft) S-SW 202 ° 15 min 0 min 0,330 mm 1,8 UV-I 475 W/m² 15,2 °C 21,1 °C 25,7 km/h (4 Bft)
16.06.24 15:30:00 21,7 °C 21,7 °C 22,9 °C 23,3 °C 22,8 °C 20,6 °C 16,1 °C 64,00% 0 lf 100 lf 128 cb 1009,1 hPa 0,0 mm 8,0 km/h (2 Bft) S-SO 157 ° 15 min 0 min 0,000 mm 1,6 UV-I 295 W/m² 14,6 °C 21,7 °C 16,1 km/h (3 Bft)
16.06.24 16:00:00 22,9 °C 21,4 °C 23,1 °C 26,1 °C 23,3 °C 20,6 °C 16,7 °C 60,00% 0 lf 100 lf 136 cb 1009,1 hPa 0,0 mm 9,7 km/h (2 Bft) S-SO 157 ° 15 min 0 min 0,330 mm 1,9 UV-I 460 W/m² 14,7 °C 21,4 °C 24,1 km/h (4 Bft)
16.06.24 16:30:00 19,6 °C 19,6 °C 23,7 °C 19,4 °C 22,8 °C 21,1 °C 16,7 °C 69,00% 15 lf 100 lf 116 cb 1009,8 hPa 1,0 mm 17,7 km/h (3 Bft) S 180 ° 15 min 15 min 0,000 mm 1,3 UV-I 409 W/m² 13,8 °C 19,6 °C 45,1 km/h (6 Bft)
16.06.24 17:00:00 19,4 °C 17,4 °C 19,6 °C 21,1 °C 22,2 °C 20,6 °C 16,7 °C 81,00% 15 lf 100 lf 120 cb 1009,4 hPa 2,0 mm 8,0 km/h (2 Bft) SW 225 ° 15 min 15 min 0,279 mm 0,8 UV-I 294 W/m² 16,1 °C 17,4 °C 29,0 km/h (5 Bft)
16.06.24 17:30:00 21,6 °C 19,6 °C 21,6 °C 21,1 °C 22,8 °C 20,6 °C 17,2 °C 72,00% 0 lf 100 lf 121 cb 1009,2 hPa 0,0 mm 6,4 km/h (2 Bft) S-SW 202 ° 15 min 0 min 0,000 mm 1,4 UV-I 540 W/m² 16,3 °C 19,6 °C 16,1 km/h (3 Bft)
16.06.24 18:00:00 22,0 °C 21,6 °C 22,2 °C 20,6 °C 22,2 °C 21,1 °C 17,2 °C 64,00% 0 lf 100 lf 119 cb 1009,0 hPa 0,0 mm 6,4 km/h (2 Bft) SO 135 ° 15 min 0 min 0,330 mm 1,1 UV-I 478 W/m² 14,9 °C 21,6 °C 16,1 km/h (3 Bft)
16.06.24 18:30:00 21,1 °C 21,1 °C 22,0 °C 19,4 °C 21,1 °C 20,6 °C 17,2 °C 72,00% 15 lf 100 lf 117 cb 1009,0 hPa 0,0 mm 3,2 km/h (1 Bft) S 180 ° 15 min 0 min 0,000 mm 0,2 UV-I 88 W/m² 15,8 °C 21,1 °C 8,0 km/h (2 Bft)
16.06.24 19:00:00 21,1 °C 20,6 °C 21,2 °C 23,3 °C 21,7 °C 20,0 °C 17,2 °C 69,00% 0 lf 100 lf 124 cb 1009,0 hPa 0,0 mm 3,2 km/h (1 Bft) S-SO 157 ° 15 min 0 min 0,102 mm 0,3 UV-I 208 W/m² 15,2 °C 20,6 °C 11,3 km/h (2 Bft)
16.06.24 19:30:00 20,2 °C 20,2 °C 21,2 °C 19,4 °C 20,6 °C 20,0 °C 17,2 °C 64,00% 0 lf 100 lf 116 cb 1009,1 hPa 0,0 mm 8,0 km/h (2 Bft) S-SO 157 ° 15 min 0 min 0,000 mm 0,0 UV-I 109 W/m² 13,2 °C 20,2 °C 20,9 km/h (4 Bft)
16.06.24 20:00:00 19,7 °C 19,7 °C 20,2 °C 18,9 °C 19,4 °C 19,4 °C 17,8 °C 63,00% 0 lf 100 lf 117 cb 1009,4 hPa 0,0 mm 8,0 km/h (2 Bft) S-SW 202 ° 15 min 0 min 0,102 mm 0,0 UV-I 76 W/m² 12,5 °C 19,7 °C 16,1 km/h (3 Bft)
16.06.24 20:30:00 19,3 °C 19,3 °C 19,7 °C 18,3 °C 18,9 °C 18,9 °C 17,8 °C 66,00% 0 lf 100 lf 114 cb 1009,8 hPa 0,0 mm 8,0 km/h (2 Bft) SW 225 ° 15 min 0 min 0,000 mm 0,0 UV-I 50 W/m² 12,8 °C 19,3 °C 24,1 km/h (4 Bft)
16.06.24 21:00:00 18,7 °C 18,7 °C 19,3 °C 17,2 °C 18,3 °C 18,9 °C 17,8 °C 72,00% 0 lf 100 lf 114 cb 1010,0 hPa 0,0 mm 4,8 km/h (1 Bft) W 270 ° 15 min 0 min 0,051 mm 0,0 UV-I 16 W/m² 13,5 °C 18,7 °C 12,9 km/h (3 Bft)
16.06.24 21:30:00 17,9 °C 17,9 °C 18,7 °C 16,1 °C 18,3 °C 18,3 °C 17,8 °C 75,00% 0 lf 100 lf 111 cb 1010,5 hPa 0,0 mm 4,8 km/h (1 Bft) W 270 ° 15 min 0 min 0,000 mm 0,0 UV-I 11 W/m² 13,4 °C 17,9 °C 8,0 km/h (2 Bft)
16.06.24 22:00:00 17,2 °C 17,2 °C 17,9 °C 15,6 °C 17,8 °C 18,3 °C 17,8 °C 77,00% 0 lf 0 lf 114 cb 1010,8 hPa 0,0 mm 4,8 km/h (1 Bft) SW 225 ° 0 min 0 min 0,025 mm 0,0 UV-I 0 W/m² 13,1 °C 17,2 °C 8,0 km/h (2 Bft)
16.06.24 22:30:00 17,2 °C 17,1 °C 17,2 °C 16,1 °C 17,2 °C 17,8 °C 17,8 °C 77,00% 1 lf 0 lf 114 cb 1010,9 hPa 0,0 mm 4,8 km/h (1 Bft) SW 225 ° 0 min 0 min 0,000 mm 0,0 UV-I 0 W/m² 13,1 °C 17,1 °C 16,1 km/h (3 Bft)
16.06.24 23:00:00 16,8 °C 16,8 °C 17,2 °C 15,6 °C 17,2 °C 17,8 °C 17,2 °C 80,00% 0 lf 0 lf 113 cb 1011,0 hPa 0,0 mm 1,6 km/h (1 Bft) SO 135 ° 0 min 0 min 0,025 mm 0,0 UV-I 0 W/m² 13,3 °C 16,8 °C 4,8 km/h (1 Bft)
16.06.24 23:30:00 16,2 °C 16,2 °C 16,8 °C 15,0 °C 16,7 °C 17,2 °C 17,2 °C 83,00% 0 lf 0 lf 115 cb 1011,1 hPa 0,0 mm 1,6 km/h (1 Bft) SO 135 ° 0 min 0 min 0,000 mm 0,0 UV-I 0 W/m² 13,3 °C 16,2 °C 3,2 km/h (1 Bft)
17.06.24 00:00:00 15,8 °C 15,8 °C 16,2 °C 15,0 °C 16,7 °C 17,2 °C 17,2 °C 84,00% 0 lf 0 lf 112 cb 1011,1 hPa 0,0 mm 3,2 km/h (1 Bft) O-SO 112 ° 0 min 0 min 0,025 mm 0,0 UV-I 0 W/m² 13,1 °C 15,8 °C 6,4 km/h (2 Bft)
_ Min-Zeit 05:00:00 05:30:00 05:00:00 05:00:00 05:30:00 06:00:00 11:30:00 13:00:00 00:00:00 00:00:00 01:30:00 19:00:00 - 04:30:00 - - - - - - - 05:00:00 05:30:00 23:30:00
Minimum _ 7,3 °C 7,3 °C 7,6 °C 6,7 °C 11,1 °C 11,7 °C 14,4 °C 56,00% 0 lf 0 lf 108 cb 1009,0 hPa - 0,0 km/h (0 Bft) - - - - - - - 5,9 °C 7,3 °C 3,2 km/h (1 Bft)
_ Max-Zeit 16:30:00 14:00:00 16:30:00 15:00:00 14:00:00 18:00:00 22:30:00 06:30:00 18:30:00 21:30:00 11:30:00 00:00:00 17:00:00 16:30:00 - - 21:30:00 17:00:00 13:00:00 12:30:00 12:30:00 17:30:00 14:00:00 16:30:00
Maximum _ 23,7 °C 21,8 °C 23,7 °C 26,7 °C 23,9 °C 21,1 °C 17,8 °C 92,00% 15 lf 100 lf 152 cb 1011,1 hPa 2,0 mm 17,7 km/h - - 15 min 15 min 0,508 mm 3,2 UV-I 860 W/m² 16,3 °C 21,8 °C 45,1 km/h
S (3 Bft) S (6 Bft)
Durchschnitt _ 16,6 °C 16,0 °C 17,0 °C 16,9 °C 17,3 °C 16,5 °C 15,9 °C 75,00% 5 lf 69 lf 123 cb 1010,1 hPa #3,0 mm 6,5 km/h (2 Bft) S-SO - #0 min. #0 min. #0,025 mm 0,0 UV-I 0 W/m² 11,8 °C 16,0 °C 15,0 km/h (3 Bft)

                                                                                                                                                                          _________________________________________________________________________________________________________________________________________________________________________

 Anomalie Daten

ausgewähltes Produkt zur Leistung: Zeitreihen und Trends
 
ausgewähltes Produkt zur Leistung:

 

 

ausgewähltes Produkt zur Leistung: Zeitreihen und Trends

Absolut Daten

ausgewähltes Produkt zur Leistung: Zeitreihen und Trends
ausgewähltes Produkt zur Leistung: Zeitreihen und Trends

 

ausgewähltes Produkt zur Leistung: Zeitreihen und Trends

 

2009 - 2024

Unwetterwarnungen

Unwetterwarnungen

  Überblick über die aktuelle Warnlage in Deutschland

  Radarbild           

aktueller Radarfilm Deutschland

Mecklenburg Vorpommern/

Brandenburg

aktuelles Wetter und aktuelle Temperatur Region Nordost

Waldbrandgefahr   

Deutschlandkarte mit dem Tageswert des Waldbrand-Gefahrenindex WBI, heute